sensor_id;sensor_type;location;lat;lon;timestamp;pressure;altitude;pressure_sealevel;temperature;humidity
11444;BME280;5778;47.856;12.154;2023-04-06T00:01:37;96549.75;;;-0.27;100.00
11444;BME280;5778;47.856;12.154;2023-04-06T00:04:26;96555.84;;;-0.34;100.00
11444;BME280;5778;47.856;12.154;2023-04-06T00:06:53;96552.25;;;-0.33;100.00
11444;BME280;5778;47.856;12.154;2023-04-06T00:09:22;96547.41;;;-0.36;100.00
11444;BME280;5778;47.856;12.154;2023-04-06T00:11:49;96547.91;;;-0.55;100.00
11444;BME280;5778;47.856;12.154;2023-04-06T00:17:36;96546.28;;;-0.56;100.00
11444;BME280;5778;47.856;12.154;2023-04-06T00:20:03;96546.22;;;-0.48;100.00
11444;BME280;5778;47.856;12.154;2023-04-06T00:22:32;96540.00;;;-0.47;100.00
11444;BME280;5778;47.856;12.154;2023-04-06T00:25:05;96550.19;;;-0.52;100.00
11444;BME280;5778;47.856;12.154;2023-04-06T00:27:32;96540.75;;;-0.75;100.00
11444;BME280;5778;47.856;12.154;2023-04-06T00:29:59;96549.72;;;-0.92;100.00
11444;BME280;5778;47.856;12.154;2023-04-06T00:32:27;96551.16;;;-0.90;100.00
11444;BME280;5778;47.856;12.154;2023-04-06T00:35:26;96552.00;;;-0.89;100.00
11444;BME280;5778;47.856;12.154;2023-04-06T00:37:53;96555.81;;;-1.00;100.00
11444;BME280;5778;47.856;12.154;2023-04-06T00:40:22;96549.47;;;-0.83;100.00
11444;BME280;5778;47.856;12.154;2023-04-06T00:43:04;96541.63;;;-0.83;100.00
11444;BME280;5778;47.856;12.154;2023-04-06T00:45:31;96538.25;;;-0.83;100.00
11444;BME280;5778;47.856;12.154;2023-04-06T00:47:59;96539.75;;;-0.89;100.00
11444;BME280;5778;47.856;12.154;2023-04-06T00:50:27;96541.13;;;-0.78;100.00
11444;BME280;5778;47.856;12.154;2023-04-06T00:52:59;96531.47;;;-0.78;100.00
11444;BME280;5778;47.856;12.154;2023-04-06T00:55:29;96531.84;;;-0.81;100.00
11444;BME280;5778;47.856;12.154;2023-04-06T00:57:58;96531.19;;;-0.83;100.00
11444;BME280;5778;47.856;12.154;2023-04-06T01:00:27;96537.13;;;-0.89;100.00
11444;BME280;5778;47.856;12.154;2023-04-06T01:02:59;96544.38;;;-0.99;100.00
11444;BME280;5778;47.856;12.154;2023-04-06T01:05:35;96543.72;;;-1.15;100.00
11444;BME280;5778;47.856;12.154;2023-04-06T01:08:08;96544.63;;;-1.31;100.00
11444;BME280;5778;47.856;12.154;2023-04-06T01:10:37;96548.13;;;-1.38;100.00
11444;BME280;5778;47.856;12.154;2023-04-06T01:13:12;96544.34;;;-1.36;100.00
11444;BME280;5778;47.856;12.154;2023-04-06T01:15:59;96537.03;;;-1.18;100.00
11444;BME280;5778;47.856;12.154;2023-04-06T01:18:39;96537.16;;;-1.11;100.00
11444;BME280;5778;47.856;12.154;2023-04-06T01:21:18;96541.97;;;-1.23;100.00
11444;BME280;5778;47.856;12.154;2023-04-06T01:24:12;96544.63;;;-1.31;100.00
11444;BME280;5778;47.856;12.154;2023-04-06T01:26:56;96540.66;;;-1.19;100.00
11444;BME280;5778;47.856;12.154;2023-04-06T01:29:27;96533.72;;;-1.12;100.00
11444;BME280;5778;47.856;12.154;2023-04-06T01:31:55;96535.34;;;-1.33;100.00
11444;BME280;5778;47.856;12.154;2023-04-06T01:34:39;96540.09;;;-1.37;100.00
11444;BME280;5778;47.856;12.154;2023-04-06T01:37:06;96540.69;;;-1.49;100.00
11444;BME280;5778;47.856;12.154;2023-04-06T01:39:36;96537.09;;;-1.26;100.00
11444;BME280;5778;47.856;12.154;2023-04-06T01:42:05;96535.88;;;-1.38;100.00
11444;BME280;5778;47.856;12.154;2023-04-06T01:44:34;96532.97;;;-1.43;100.00
11444;BME280;5778;47.856;12.154;2023-04-06T01:47:10;96536.16;;;-1.33;100.00
11444;BME280;5778;47.856;12.154;2023-04-06T01:49:37;96526.19;;;-1.29;100.00
11444;BME280;5778;47.856;12.154;2023-04-06T01:52:05;96530.94;;;-1.33;100.00
11444;BME280;5778;47.856;12.154;2023-04-06T01:58:19;96530.44;;;-1.51;100.00
11444;BME280;5778;47.856;12.154;2023-04-06T02:00:46;96528.00;;;-1.52;100.00
11444;BME280;5778;47.856;12.154;2023-04-06T02:03:22;96531.75;;;-1.55;100.00
11444;BME280;5778;47.856;12.154;2023-04-06T02:05:58;96535.97;;;-1.54;100.00
11444;BME280;5778;47.856;12.154;2023-04-06T02:08:33;96532.66;;;-1.48;100.00
11444;BME280;5778;47.856;12.154;2023-04-06T02:11:00;96523.16;;;-1.63;100.00
11444;BME280;5778;47.856;12.154;2023-04-06T02:13:35;96535.47;;;-1.49;100.00
11444;BME280;5778;47.856;12.154;2023-04-06T02:16:02;96531.84;;;-1.71;100.00
11444;BME280;5778;47.856;12.154;2023-04-06T02:18:30;96534.06;;;-1.60;100.00
11444;BME280;5778;47.856;12.154;2023-04-06T02:20:56;96536.91;;;-1.77;100.00
11444;BME280;5778;47.856;12.154;2023-04-06T02:23:24;96528.06;;;-1.68;100.00
11444;BME280;5778;47.856;12.154;2023-04-06T02:25:52;96533.16;;;-1.75;100.00
11444;BME280;5778;47.856;12.154;2023-04-06T02:28:19;96531.53;;;-1.76;100.00
11444;BME280;5778;47.856;12.154;2023-04-06T02:30:47;96537.13;;;-1.87;100.00
11444;BME280;5778;47.856;12.154;2023-04-06T02:33:24;96534.09;;;-1.98;100.00
11444;BME280;5778;47.856;12.154;2023-04-06T02:35:51;96529.00;;;-1.92;100.00
11444;BME280;5778;47.856;12.154;2023-04-06T02:38:18;96533.75;;;-1.95;100.00
11444;BME280;5778;47.856;12.154;2023-04-06T02:40:45;96537.19;;;-1.95;100.00
11444;BME280;5778;47.856;12.154;2023-04-06T02:43:21;96539.19;;;-2.13;100.00
11444;BME280;5778;47.856;12.154;2023-04-06T02:45:55;96543.78;;;-2.15;100.00
11444;BME280;5778;47.856;12.154;2023-04-06T02:48:24;96533.66;;;-2.18;100.00
11444;BME280;5778;47.856;12.154;2023-04-06T02:50:52;96530.59;;;-2.21;100.00
11444;BME280;5778;47.856;12.154;2023-04-06T02:53:32;96539.84;;;-2.11;100.00
11444;BME280;5778;47.856;12.154;2023-04-06T02:56:00;96535.91;;;-2.07;100.00
11444;BME280;5778;47.856;12.154;2023-04-06T02:58:36;96525.84;;;-2.18;100.00
11444;BME280;5778;47.856;12.154;2023-04-06T03:01:05;96532.53;;;-2.15;100.00
11444;BME280;5778;47.856;12.154;2023-04-06T03:03:57;96526.06;;;-2.27;100.00
11444;BME280;5778;47.856;12.154;2023-04-06T03:06:27;96528.34;;;-2.32;100.00
11444;BME280;5778;47.856;12.154;2023-04-06T03:08:58;96531.31;;;-2.43;100.00
11444;BME280;5778;47.856;12.154;2023-04-06T03:11:25;96536.03;;;-2.39;100.00
11444;BME280;5778;47.856;12.154;2023-04-06T03:13:59;96530.53;;;-2.44;100.00
11444;BME280;5778;47.856;12.154;2023-04-06T03:16:27;96531.50;;;-2.45;100.00
11444;BME280;5778;47.856;12.154;2023-04-06T03:18:56;96529.03;;;-2.38;100.00
11444;BME280;5778;47.856;12.154;2023-04-06T03:21:23;96530.31;;;-2.34;100.00
11444;BME280;5778;47.856;12.154;2023-04-06T03:24:05;96530.16;;;-2.33;100.00
11444;BME280;5778;47.856;12.154;2023-04-06T03:26:32;96529.81;;;-2.30;100.00
11444;BME280;5778;47.856;12.154;2023-04-06T03:29:03;96526.72;;;-2.25;100.00
11444;BME280;5778;47.856;12.154;2023-04-06T03:31:32;96539.53;;;-2.16;100.00
11444;BME280;5778;47.856;12.154;2023-04-06T03:34:37;96533.25;;;-2.37;100.00
11444;BME280;5778;47.856;12.154;2023-04-06T03:37:04;96532.78;;;-2.33;100.00
11444;BME280;5778;47.856;12.154;2023-04-06T03:39:31;96534.41;;;-2.40;100.00
11444;BME280;5778;47.856;12.154;2023-04-06T03:41:59;96534.59;;;-2.41;100.00
11444;BME280;5778;47.856;12.154;2023-04-06T03:44:40;96540.16;;;-2.52;100.00
11444;BME280;5778;47.856;12.154;2023-04-06T03:47:09;96542.22;;;-2.40;100.00
11444;BME280;5778;47.856;12.154;2023-04-06T03:49:36;96550.84;;;-2.39;100.00
11444;BME280;5778;47.856;12.154;2023-04-06T03:52:06;96543.72;;;-2.53;100.00
11444;BME280;5778;47.856;12.154;2023-04-06T03:54:38;96549.75;;;-2.53;100.00
11444;BME280;5778;47.856;12.154;2023-04-06T03:57:05;96550.38;;;-2.43;100.00
11444;BME280;5778;47.856;12.154;2023-04-06T03:59:32;96550.56;;;-2.52;100.00
11444;BME280;5778;47.856;12.154;2023-04-06T04:01:59;96558.53;;;-2.62;100.00
11444;BME280;5778;47.856;12.154;2023-04-06T04:04:30;96562.78;;;-2.69;100.00
11444;BME280;5778;47.856;12.154;2023-04-06T04:06:57;96560.81;;;-2.67;100.00
11444;BME280;5778;47.856;12.154;2023-04-06T04:09:25;96561.97;;;-2.61;100.00
11444;BME280;5778;47.856;12.154;2023-04-06T04:11:52;96559.81;;;-2.58;100.00
11444;BME280;5778;47.856;12.154;2023-04-06T04:14:31;96561.63;;;-2.58;100.00
11444;BME280;5778;47.856;12.154;2023-04-06T04:16:58;96563.28;;;-2.73;100.00
11444;BME280;5778;47.856;12.154;2023-04-06T04:19:26;96570.59;;;-2.77;100.00
11444;BME280;5778;47.856;12.154;2023-04-06T04:21:56;96569.47;;;-2.74;100.00
11444;BME280;5778;47.856;12.154;2023-04-06T04:24:38;96566.50;;;-2.71;100.00
11444;BME280;5778;47.856;12.154;2023-04-06T04:27:05;96560.66;;;-2.65;100.00
11444;BME280;5778;47.856;12.154;2023-04-06T04:29:33;96566.53;;;-2.63;100.00
11444;BME280;5778;47.856;12.154;2023-04-06T04:32:06;96565.53;;;-2.62;100.00
11444;BME280;5778;47.856;12.154;2023-04-06T04:34:35;96564.41;;;-2.76;100.00
11444;BME280;5778;47.856;12.154;2023-04-06T04:37:08;96568.66;;;-2.83;100.00
11444;BME280;5778;47.856;12.154;2023-04-06T04:39:47;96570.13;;;-2.88;100.00
11444;BME280;5778;47.856;12.154;2023-04-06T04:42:14;96570.75;;;-2.78;100.00
11444;BME280;5778;47.856;12.154;2023-04-06T04:45:13;96576.13;;;-2.64;100.00
11444;BME280;5778;47.856;12.154;2023-04-06T04:47:41;96576.91;;;-2.47;100.00
11444;BME280;5778;47.856;12.154;2023-04-06T04:50:10;96573.16;;;-2.45;100.00
11444;BME280;5778;47.856;12.154;2023-04-06T04:52:42;96575.41;;;-2.34;100.00
11444;BME280;5778;47.856;12.154;2023-04-06T04:55:14;96581.56;;;-2.27;100.00
11444;BME280;5778;47.856;12.154;2023-04-06T04:57:45;96575.66;;;-2.13;100.00
11444;BME280;5778;47.856;12.154;2023-04-06T05:00:13;96572.72;;;-2.10;100.00
11444;BME280;5778;47.856;12.154;2023-04-06T05:02:43;96572.09;;;-2.12;100.00
11444;BME280;5778;47.856;12.154;2023-04-06T05:05:17;96563.78;;;-2.15;100.00
11444;BME280;5778;47.856;12.154;2023-04-06T05:07:46;96568.34;;;-2.09;100.00
11444;BME280;5778;47.856;12.154;2023-04-06T05:10:24;96567.53;;;-2.10;100.00
11444;BME280;5778;47.856;12.154;2023-04-06T05:12:59;96574.34;;;-2.09;100.00
11444;BME280;5778;47.856;12.154;2023-04-06T05:15:26;96571.53;;;-1.91;100.00
11444;BME280;5778;47.856;12.154;2023-04-06T05:18:00;96577.47;;;-1.75;100.00
11444;BME280;5778;47.856;12.154;2023-04-06T05:20:59;96580.06;;;-1.67;100.00
11444;BME280;5778;47.856;12.154;2023-04-06T05:23:44;96585.50;;;-1.54;100.00
11444;BME280;5778;47.856;12.154;2023-04-06T05:26:11;96592.25;;;-1.37;100.00
11444;BME280;5778;47.856;12.154;2023-04-06T05:28:39;96588.09;;;-1.23;100.00
11444;BME280;5778;47.856;12.154;2023-04-06T05:31:09;96593.91;;;-1.13;100.00
11444;BME280;5778;47.856;12.154;2023-04-06T05:33:45;96584.13;;;-1.11;100.00
11444;BME280;5778;47.856;12.154;2023-04-06T05:36:15;96585.09;;;-0.90;100.00
11444;BME280;5778;47.856;12.154;2023-04-06T05:38:46;96585.16;;;-0.75;100.00
11444;BME280;5778;47.856;12.154;2023-04-06T05:41:29;96576.09;;;-0.65;100.00
11444;BME280;5778;47.856;12.154;2023-04-06T05:44:05;96582.97;;;-0.49;100.00
11444;BME280;5778;47.856;12.154;2023-04-06T05:46:32;96584.69;;;-0.42;100.00
11444;BME280;5778;47.856;12.154;2023-04-06T05:49:00;96581.72;;;-0.39;100.00
11444;BME280;5778;47.856;12.154;2023-04-06T05:51:31;96577.31;;;-0.38;100.00
11444;BME280;5778;47.856;12.154;2023-04-06T05:54:25;96581.94;;;-0.26;100.00
11444;BME280;5778;47.856;12.154;2023-04-06T05:56:58;96580.03;;;-0.03;100.00
11444;BME280;5778;47.856;12.154;2023-04-06T05:59:25;96583.66;;;0.10;100.00
11444;BME280;5778;47.856;12.154;2023-04-06T06:01:53;96579.28;;;0.32;100.00
11444;BME280;5778;47.856;12.154;2023-04-06T06:04:27;96580.25;;;0.45;100.00
11444;BME280;5778;47.856;12.154;2023-04-06T06:06:54;96591.00;;;0.36;100.00
11444;BME280;5778;47.856;12.154;2023-04-06T06:09:28;96585.78;;;0.36;100.00
11444;BME280;5778;47.856;12.154;2023-04-06T06:12:04;96583.03;;;0.58;100.00
11444;BME280;5778;47.856;12.154;2023-04-06T06:14:48;96580.66;;;0.78;100.00
11444;BME280;5778;47.856;12.154;2023-04-06T06:17:15;96584.66;;;0.95;100.00
11444;BME280;5778;47.856;12.154;2023-04-06T06:19:45;96583.19;;;0.71;100.00
11444;BME280;5778;47.856;12.154;2023-04-06T06:22:12;96585.97;;;0.84;100.00
11444;BME280;5778;47.856;12.154;2023-04-06T06:24:56;96578.16;;;1.12;100.00
11444;BME280;5778;47.856;12.154;2023-04-06T06:27:23;96582.88;;;1.44;100.00
11444;BME280;5778;47.856;12.154;2023-04-06T06:29:51;96588.13;;;1.44;100.00
11444;BME280;5778;47.856;12.154;2023-04-06T06:32:19;96584.56;;;1.51;100.00
11444;BME280;5778;47.856;12.154;2023-04-06T06:35:02;96585.31;;;1.73;100.00
11444;BME280;5778;47.856;12.154;2023-04-06T06:37:29;96587.16;;;1.72;100.00
11444;BME280;5778;47.856;12.154;2023-04-06T06:39:58;96583.41;;;1.88;100.00
11444;BME280;5778;47.856;12.154;2023-04-06T06:42:26;96587.31;;;1.98;100.00
11444;BME280;5778;47.856;12.154;2023-04-06T06:45:21;96592.13;;;1.95;100.00
11444;BME280;5778;47.856;12.154;2023-04-06T06:47:51;96590.41;;;2.08;100.00
11444;BME280;5778;47.856;12.154;2023-04-06T06:50:18;96593.00;;;2.36;100.00
11444;BME280;5778;47.856;12.154;2023-04-06T06:52:45;96591.88;;;2.58;100.00
11444;BME280;5778;47.856;12.154;2023-04-06T06:55:15;96596.34;;;2.64;100.00
11444;BME280;5778;47.856;12.154;2023-04-06T06:57:44;96589.28;;;2.71;100.00
11444;BME280;5778;47.856;12.154;2023-04-06T07:00:13;96591.13;;;2.77;100.00
11444;BME280;5778;47.856;12.154;2023-04-06T07:02:42;96595.88;;;3.07;100.00
11444;BME280;5778;47.856;12.154;2023-04-06T07:05:10;96587.81;;;3.15;100.00
11444;BME280;5778;47.856;12.154;2023-04-06T07:07:37;96595.91;;;3.33;100.00
11444;BME280;5778;47.856;12.154;2023-04-06T07:10:05;96599.78;;;3.57;100.00
11444;BME280;5778;47.856;12.154;2023-04-06T07:12:38;96591.69;;;3.39;100.00
11444;BME280;5778;47.856;12.154;2023-04-06T07:18:19;96590.28;;;3.49;100.00
11444;BME280;5778;47.856;12.154;2023-04-06T07:20:47;96595.53;;;3.49;100.00
11444;BME280;5778;47.856;12.154;2023-04-06T07:23:19;96593.91;;;3.61;100.00
11444;BME280;5778;47.856;12.154;2023-04-06T07:25:46;96589.47;;;3.75;100.00
11444;BME280;5778;47.856;12.154;2023-04-06T07:28:17;96587.81;;;4.13;100.00
11444;BME280;5778;47.856;12.154;2023-04-06T07:30:44;96585.69;;;4.54;100.00
11444;BME280;5778;47.856;12.154;2023-04-06T07:33:20;96577.91;;;4.65;100.00
11444;BME280;5778;47.856;12.154;2023-04-06T07:35:47;96581.97;;;4.68;100.00
11444;BME280;5778;47.856;12.154;2023-04-06T07:38:15;96579.97;;;4.63;100.00
11444;BME280;5778;47.856;12.154;2023-04-06T07:40:42;96581.28;;;4.85;100.00
11444;BME280;5778;47.856;12.154;2023-04-06T07:43:14;96588.88;;;5.06;100.00
11444;BME280;5778;47.856;12.154;2023-04-06T07:45:42;96584.53;;;5.25;100.00
11444;BME280;5778;47.856;12.154;2023-04-06T07:48:10;96586.88;;;5.39;100.00
11444;BME280;5778;47.856;12.154;2023-04-06T07:50:37;96583.72;;;5.24;100.00
11444;BME280;5778;47.856;12.154;2023-04-06T07:53:09;96582.78;;;5.43;100.00
11444;BME280;5778;47.856;12.154;2023-04-06T07:55:37;96583.28;;;5.58;100.00
11444;BME280;5778;47.856;12.154;2023-04-06T07:58:04;96581.38;;;5.72;100.00
11444;BME280;5778;47.856;12.154;2023-04-06T08:00:31;96582.00;;;6.16;100.00
11444;BME280;5778;47.856;12.154;2023-04-06T08:03:11;96571.94;;;6.25;100.00
11444;BME280;5778;47.856;12.154;2023-04-06T08:05:38;96572.84;;;6.37;100.00
11444;BME280;5778;47.856;12.154;2023-04-06T08:08:05;96574.03;;;6.41;100.00
11444;BME280;5778;47.856;12.154;2023-04-06T08:10:32;96571.22;;;6.36;100.00
11444;BME280;5778;47.856;12.154;2023-04-06T08:13:21;96568.16;;;6.57;100.00
11444;BME280;5778;47.856;12.154;2023-04-06T08:15:48;96564.53;;;6.33;100.00
11444;BME280;5778;47.856;12.154;2023-04-06T08:18:17;96565.81;;;6.67;100.00
11444;BME280;5778;47.856;12.154;2023-04-06T08:20:44;96570.78;;;6.75;100.00
11444;BME280;5778;47.856;12.154;2023-04-06T08:23:11;96566.47;;;6.44;100.00
11444;BME280;5778;47.856;12.154;2023-04-06T08:25:38;96565.13;;;6.71;100.00
11444;BME280;5778;47.856;12.154;2023-04-06T08:28:05;96562.06;;;7.33;100.00
11444;BME280;5778;47.856;12.154;2023-04-06T08:30:32;96563.69;;;7.05;99.13
11444;BME280;5778;47.856;12.154;2023-04-06T08:36:11;96558.13;;;8.00;84.67
11444;BME280;5778;47.856;12.154;2023-04-06T08:38:39;96557.94;;;8.36;78.23
11444;BME280;5778;47.856;12.154;2023-04-06T08:41:09;96554.69;;;8.57;72.39
11444;BME280;5778;47.856;12.154;2023-04-06T08:43:43;96547.06;;;8.72;78.99
11444;BME280;5778;47.856;12.154;2023-04-06T08:46:11;96542.34;;;9.02;73.00
11444;BME280;5778;47.856;12.154;2023-04-06T08:48:38;96551.75;;;9.09;62.61
11444;BME280;5778;47.856;12.154;2023-04-06T08:51:07;96546.44;;;9.37;58.57
11444;BME280;5778;47.856;12.154;2023-04-06T08:53:55;96544.19;;;9.29;60.95
11444;BME280;5778;47.856;12.154;2023-04-06T08:56:24;96545.34;;;9.66;60.55
11444;BME280;5778;47.856;12.154;2023-04-06T08:58:52;96546.31;;;9.77;56.85
11444;BME280;5778;47.856;12.154;2023-04-06T09:01:21;96550.59;;;9.94;54.99
11444;BME280;5778;47.856;12.154;2023-04-06T09:03:55;96548.19;;;9.93;52.79
11444;BME280;5778;47.856;12.154;2023-04-06T09:06:25;96541.97;;;9.71;51.21
11444;BME280;5778;47.856;12.154;2023-04-06T09:08:55;96546.06;;;10.28;52.25
11444;BME280;5778;47.856;12.154;2023-04-06T09:11:23;96544.09;;;10.40;46.37
11444;BME280;5778;47.856;12.154;2023-04-06T09:14:01;96544.22;;;10.28;45.84
11444;BME280;5778;47.856;12.154;2023-04-06T09:16:27;96545.34;;;9.50;42.31
11444;BME280;5778;47.856;12.154;2023-04-06T09:19:05;96537.00;;;10.24;44.43
11444;BME280;5778;47.856;12.154;2023-04-06T09:21:32;96540.94;;;10.59;42.81
11444;BME280;5778;47.856;12.154;2023-04-06T09:24:08;96537.41;;;10.54;41.79
11444;BME280;5778;47.856;12.154;2023-04-06T09:26:46;96535.06;;;10.03;40.59
11444;BME280;5778;47.856;12.154;2023-04-06T09:29:22;96538.59;;;10.25;44.04
11444;BME280;5778;47.856;12.154;2023-04-06T09:31:52;96531.41;;;10.85;42.70
11444;BME280;5778;47.856;12.154;2023-04-06T09:34:24;96531.63;;;11.05;40.21
11444;BME280;5778;47.856;12.154;2023-04-06T09:36:51;96525.16;;;10.53;40.63
11444;BME280;5778;47.856;12.154;2023-04-06T09:39:22;96532.19;;;9.27;40.39
11444;BME280;5778;47.856;12.154;2023-04-06T09:41:51;96532.97;;;9.72;42.78
11444;BME280;5778;47.856;12.154;2023-04-06T09:44:19;96523.81;;;10.34;40.32
11444;BME280;5778;47.856;12.154;2023-04-06T09:46:47;96525.97;;;9.99;39.65
11444;BME280;5778;47.856;12.154;2023-04-06T09:49:14;96528.13;;;10.02;40.59
11444;BME280;5778;47.856;12.154;2023-04-06T09:51:45;96527.91;;;9.87;39.61
11444;BME280;5778;47.856;12.154;2023-04-06T09:54:17;96522.84;;;10.40;40.15
11444;BME280;5778;47.856;12.154;2023-04-06T09:56:50;96520.66;;;11.23;40.70
11444;BME280;5778;47.856;12.154;2023-04-06T09:59:22;96524.16;;;11.02;41.02
11444;BME280;5778;47.856;12.154;2023-04-06T10:01:52;96517.88;;;11.61;40.82
11444;BME280;5778;47.856;12.154;2023-04-06T10:04:49;96513.84;;;11.90;39.70
11444;BME280;5778;47.856;12.154;2023-04-06T10:07:20;96510.81;;;12.18;38.35
11444;BME280;5778;47.856;12.154;2023-04-06T10:09:48;96508.13;;;12.13;37.93
11444;BME280;5778;47.856;12.154;2023-04-06T10:12:17;96506.78;;;11.21;38.12
11444;BME280;5778;47.856;12.154;2023-04-06T10:14:47;96506.00;;;11.78;38.16
11444;BME280;5778;47.856;12.154;2023-04-06T10:17:15;96505.13;;;11.15;36.66
11444;BME280;5778;47.856;12.154;2023-04-06T10:19:47;96507.41;;;11.28;37.86
11444;BME280;5778;47.856;12.154;2023-04-06T10:22:22;96503.44;;;10.82;37.19
11444;BME280;5778;47.856;12.154;2023-04-06T10:24:56;96507.84;;;10.93;40.01
11444;BME280;5778;47.856;12.154;2023-04-06T10:27:34;96509.06;;;10.64;36.98
11444;BME280;5778;47.856;12.154;2023-04-06T10:30:03;96503.06;;;10.95;36.80
11444;BME280;5778;47.856;12.154;2023-04-06T10:32:34;96501.53;;;10.35;36.58
11444;BME280;5778;47.856;12.154;2023-04-06T10:35:24;96493.16;;;10.26;37.72
11444;BME280;5778;47.856;12.154;2023-04-06T10:38:03;96491.59;;;11.48;39.04
11444;BME280;5778;47.856;12.154;2023-04-06T10:40:31;96488.25;;;11.31;37.34
11444;BME280;5778;47.856;12.154;2023-04-06T10:43:09;96486.09;;;12.27;38.89
11444;BME280;5778;47.856;12.154;2023-04-06T10:45:36;96479.53;;;12.45;36.16
11444;BME280;5778;47.856;12.154;2023-04-06T10:48:12;96482.38;;;12.95;34.70
11444;BME280;5778;47.856;12.154;2023-04-06T10:50:41;96482.03;;;12.71;35.49
11444;BME280;5778;47.856;12.154;2023-04-06T10:53:21;96482.78;;;13.33;36.00
11444;BME280;5778;47.856;12.154;2023-04-06T10:55:49;96471.53;;;13.11;36.80
11444;BME280;5778;47.856;12.154;2023-04-06T10:58:19;96476.78;;;12.91;34.44
11444;BME280;5778;47.856;12.154;2023-04-06T11:00:47;96482.16;;;11.30;35.60
11444;BME280;5778;47.856;12.154;2023-04-06T11:03:26;96477.63;;;11.94;35.24
11444;BME280;5778;47.856;12.154;2023-04-06T11:05:54;96476.78;;;11.25;36.27
11444;BME280;5778;47.856;12.154;2023-04-06T11:08:25;96481.13;;;11.63;35.68
11444;BME280;5778;47.856;12.154;2023-04-06T11:11:04;96476.91;;;10.87;36.98
11444;BME280;5778;47.856;12.154;2023-04-06T11:13:42;96472.25;;;10.78;37.25
11444;BME280;5778;47.856;12.154;2023-04-06T11:16:13;96470.28;;;11.16;36.88
11444;BME280;5778;47.856;12.154;2023-04-06T11:18:51;96467.19;;;11.56;37.47
11444;BME280;5778;47.856;12.154;2023-04-06T11:21:20;96461.53;;;11.47;36.81
11444;BME280;5778;47.856;12.154;2023-04-06T11:23:49;96456.19;;;11.47;36.79
11444;BME280;5778;47.856;12.154;2023-04-06T11:26:16;96457.59;;;10.97;36.49
11444;BME280;5778;47.856;12.154;2023-04-06T11:28:45;96450.69;;;11.27;36.49
11444;BME280;5778;47.856;12.154;2023-04-06T11:31:12;96451.91;;;10.88;36.74
11444;BME280;5778;47.856;12.154;2023-04-06T11:33:42;96444.28;;;10.97;37.00
11444;BME280;5778;47.856;12.154;2023-04-06T11:36:09;96446.59;;;11.78;37.38
11444;BME280;5778;47.856;12.154;2023-04-06T11:38:39;96444.25;;;12.28;36.64
11444;BME280;5778;47.856;12.154;2023-04-06T11:41:06;96434.44;;;11.92;35.72
11444;BME280;5778;47.856;12.154;2023-04-06T11:43:55;96438.63;;;12.96;35.30
11444;BME280;5778;47.856;12.154;2023-04-06T11:46:21;96438.47;;;12.51;34.85
11444;BME280;5778;47.856;12.154;2023-04-06T11:48:48;96430.44;;;12.46;35.11
11444;BME280;5778;47.856;12.154;2023-04-06T11:51:22;96429.75;;;12.14;35.85
11444;BME280;5778;47.856;12.154;2023-04-06T11:53:50;96429.91;;;11.92;35.95
11444;BME280;5778;47.856;12.154;2023-04-06T11:56:24;96429.53;;;12.20;35.06
11444;BME280;5778;47.856;12.154;2023-04-06T11:58:54;96431.00;;;12.48;35.83
11444;BME280;5778;47.856;12.154;2023-04-06T12:01:22;96421.25;;;12.17;35.29
11444;BME280;5778;47.856;12.154;2023-04-06T12:07:11;96422.69;;;11.88;36.01
11444;BME280;5778;47.856;12.154;2023-04-06T12:09:40;96422.56;;;11.68;37.25
11444;BME280;5778;47.856;12.154;2023-04-06T12:12:06;96425.34;;;11.20;37.23
11444;BME280;5778;47.856;12.154;2023-04-06T12:14:39;96421.75;;;11.04;37.84
11444;BME280;5778;47.856;12.154;2023-04-06T12:17:06;96422.94;;;10.92;37.84
11444;BME280;5778;47.856;12.154;2023-04-06T12:19:34;96420.16;;;10.55;37.47
11444;BME280;5778;47.856;12.154;2023-04-06T12:22:01;96413.31;;;11.49;38.63
11444;BME280;5778;47.856;12.154;2023-04-06T12:27:01;96412.34;;;12.63;36.75
11444;BME280;5778;47.856;12.154;2023-04-06T12:29:28;96405.59;;;13.47;36.43
11444;BME280;5778;47.856;12.154;2023-04-06T12:31:56;96407.69;;;13.75;36.79
11444;BME280;5778;47.856;12.154;2023-04-06T12:34:25;96404.78;;;13.76;34.30
11444;BME280;5778;47.856;12.154;2023-04-06T12:36:52;96404.50;;;13.23;34.49
11444;BME280;5778;47.856;12.154;2023-04-06T12:39:19;96397.50;;;12.92;33.32
11444;BME280;5778;47.856;12.154;2023-04-06T12:41:47;96399.69;;;13.60;33.30
11444;BME280;5778;47.856;12.154;2023-04-06T12:44:37;96395.97;;;13.46;32.57
11444;BME280;5778;47.856;12.154;2023-04-06T12:47:05;96394.38;;;13.15;33.49
11444;BME280;5778;47.856;12.154;2023-04-06T12:49:32;96384.03;;;14.32;33.26
11444;BME280;5778;47.856;12.154;2023-04-06T12:51:59;96394.56;;;14.77;33.33
11444;BME280;5778;47.856;12.154;2023-04-06T12:55:03;96386.53;;;14.77;32.88
11444;BME280;5778;47.856;12.154;2023-04-06T12:57:30;96378.44;;;14.33;32.15
11444;BME280;5778;47.856;12.154;2023-04-06T12:59:57;96379.53;;;15.19;32.47
11444;BME280;5778;47.856;12.154;2023-04-06T13:02:27;96379.75;;;15.28;32.45
11444;BME280;5778;47.856;12.154;2023-04-06T13:04:53;96372.25;;;15.92;31.91
11444;BME280;5778;47.856;12.154;2023-04-06T13:07:21;96367.50;;;16.07;31.55
11444;BME280;5778;47.856;12.154;2023-04-06T13:09:48;96371.72;;;15.90;29.87
11444;BME280;5778;47.856;12.154;2023-04-06T13:12:16;96365.56;;;15.61;31.25
11444;BME280;5778;47.856;12.154;2023-04-06T13:14:44;96369.63;;;14.28;29.93
11444;BME280;5778;47.856;12.154;2023-04-06T13:17:12;96364.28;;;14.28;30.91
11444;BME280;5778;47.856;12.154;2023-04-06T13:19:41;96359.34;;;14.55;30.60
11444;BME280;5778;47.856;12.154;2023-04-06T13:22:08;96371.41;;;14.96;30.36
11444;BME280;5778;47.856;12.154;2023-04-06T13:24:35;96356.69;;;14.50;29.50
11444;BME280;5778;47.856;12.154;2023-04-06T13:27:02;96362.09;;;14.83;31.25
11444;BME280;5778;47.856;12.154;2023-04-06T13:29:30;96349.44;;;15.32;29.73
11444;BME280;5778;47.856;12.154;2023-04-06T13:31:56;96346.94;;;15.74;30.72
11444;BME280;5778;47.856;12.154;2023-04-06T13:34:25;96360.94;;;14.56;30.23
11444;BME280;5778;47.856;12.154;2023-04-06T13:36:54;96359.53;;;14.73;29.98
11444;BME280;5778;47.856;12.154;2023-04-06T13:39:21;96351.56;;;14.97;29.62